VTSE/CJM METAR and TAF weather

Enter ICAO airport designator
Station Type Date Time Source
VTSE METAR 2018/12/13 06:00 UTC NOAA

VTSE 130600Z 03010KT 350V100 9999 BKN020 28/25 Q1011 NOSIG


Station Type Date Time Source
VTSE Decoded METAR 2018/12/13 06:00 UTC NOAA

Station name not available
Dec 13, 2018 - 01:00 AM EST / 2018.12.13 0600 UTC
Wind: from the NNE (030 degrees) at 12 MPH (10 KT) (direction variable):0
Visibility: greater than 7 mile(s):0
Sky conditions: mostly cloudy
Temperature: 82 F (28 C)
Dew Point: 77 F (25 C)
Relative Humidity: 83%
Pressure (altimeter): 29.85 in. Hg (1011 hPa)
ob: VTSE 130600Z 03010KT 350V100 9999 BKN020 28/25 Q1011 NOSIG
cycle: 6

Station Type Date Time Source
VTSE TAF 2018/12/13 06:00 UTC NOAA

TAF VTSE 130500Z 1306/1406 04010KT 9999 SCT020
TEMPO 1306/1312 5000 RA SCT015 BKN100
BECMG 1313/1315 29003KT
BECMG 1320/1322 5000 BR
BECMG 1402/1404 04010KT 9999 NSW


Example: see airport list